createdAt,value
2023-05-09T00:02:29.679Z,8.96
2023-05-09T00:05:32.743Z,8.93
2023-05-09T00:08:36.126Z,8.94
2023-05-09T00:11:39.421Z,8.90
2023-05-09T00:14:42.679Z,8.87
2023-05-09T00:17:46.072Z,8.93
2023-05-09T00:20:49.791Z,8.83
2023-05-09T00:23:52.894Z,8.85
2023-05-09T00:26:55.613Z,8.80
2023-05-09T00:29:58.687Z,8.81
2023-05-09T00:33:01.620Z,8.67
2023-05-09T00:36:05.239Z,8.57
2023-05-09T00:39:08.174Z,8.57
2023-05-09T00:42:11.175Z,8.60
2023-05-09T00:45:13.869Z,8.48
2023-05-09T00:48:17.270Z,8.42
2023-05-09T00:51:20.570Z,8.36
2023-05-09T00:54:23.451Z,8.52
2023-05-09T00:57:26.251Z,8.58
2023-05-09T01:00:29.367Z,8.43
2023-05-09T01:03:33.005Z,8.39
2023-05-09T01:06:52.477Z,8.24
2023-05-09T01:10:23.539Z,8.21
2023-05-09T01:13:36.150Z,8.16
2023-05-09T01:16:46.838Z,8.13
2023-05-09T01:20:13.151Z,8.08
2023-05-09T01:23:31.379Z,8.10
2023-05-09T01:26:46.650Z,8.05
2023-05-09T01:29:57.190Z,8.07
2023-05-09T01:33:06.465Z,8.01
2023-05-09T01:36:15.120Z,8.03
2023-05-09T01:39:19.180Z,7.98
2023-05-09T01:42:22.829Z,7.91
2023-05-09T01:45:27.506Z,7.92
2023-05-09T01:48:31.538Z,7.87
2023-05-09T01:51:36.696Z,7.93
2023-05-09T01:54:40.611Z,7.89
2023-05-09T01:57:45.197Z,7.86
2023-05-09T02:00:50.603Z,7.74
2023-05-09T02:03:54.378Z,7.71
2023-05-09T02:06:58.018Z,7.73
2023-05-09T02:10:02.308Z,7.80
2023-05-09T02:13:05.234Z,7.83
2023-05-09T02:16:09.290Z,7.81
2023-05-09T02:19:14.547Z,7.68
2023-05-09T02:22:17.489Z,7.59
2023-05-09T02:25:20.361Z,7.50
2023-05-09T02:28:25.459Z,7.46
2023-05-09T02:31:29.791Z,7.45
2023-05-09T02:34:33.184Z,7.36
2023-05-09T02:37:37.085Z,7.44
2023-05-09T02:40:42.989Z,7.52
2023-05-09T02:43:46.045Z,7.49
2023-05-09T02:46:48.686Z,7.52
2023-05-09T02:49:51.638Z,7.48
2023-05-09T02:52:54.436Z,7.44
2023-05-09T02:55:57.346Z,7.43
2023-05-09T02:59:00.089Z,7.37
2023-05-09T03:02:03.189Z,7.28
2023-05-09T03:05:06.310Z,7.27
2023-05-09T03:08:09.842Z,7.36
2023-05-09T03:11:12.435Z,7.25
2023-05-09T03:14:15.503Z,7.32
2023-05-09T03:17:21.330Z,7.36
2023-05-09T03:20:26.836Z,7.38
2023-05-09T03:23:29.724Z,7.34
2023-05-09T03:26:32.672Z,7.29
2023-05-09T03:29:36.071Z,7.38
2023-05-09T03:32:39.912Z,7.41
2023-05-09T03:35:42.459Z,7.28
2023-05-09T03:38:45.584Z,7.42
2023-05-09T03:41:49.199Z,7.46
2023-05-09T03:44:53.029Z,7.47
2023-05-09T03:47:56.567Z,7.53
2023-05-09T03:50:59.773Z,7.48
2023-05-09T03:54:02.926Z,7.61
2023-05-09T03:57:05.930Z,7.73
2023-05-09T04:00:10.431Z,7.72
2023-05-09T04:03:16.585Z,7.76
2023-05-09T04:06:20.626Z,7.84
2023-05-09T04:09:24.048Z,7.86
2023-05-09T04:12:27.502Z,7.91
2023-05-09T04:15:30.830Z,8.07
2023-05-09T04:18:34.107Z,8.18
2023-05-09T04:21:36.830Z,8.12
2023-05-09T04:24:39.924Z,8.17
2023-05-09T04:27:42.636Z,8.24
2023-05-09T04:30:46.423Z,8.39
2023-05-09T04:33:49.168Z,8.45
2023-05-09T04:36:52.230Z,8.57
2023-05-09T04:39:55.229Z,8.72
2023-05-09T04:42:59.687Z,8.87
2023-05-09T04:46:02.651Z,8.95
2023-05-09T04:49:05.802Z,9.11
2023-05-09T04:52:08.508Z,9.15
2023-05-09T04:55:11.645Z,9.24
2023-05-09T04:58:14.563Z,9.24
2023-05-09T05:01:17.995Z,9.34
2023-05-09T05:04:20.750Z,9.49
2023-05-09T05:07:24.661Z,9.58
2023-05-09T05:10:27.474Z,9.65
2023-05-09T05:13:32.009Z,9.56
2023-05-09T05:16:35.359Z,9.72
2023-05-09T05:19:38.354Z,9.89
2023-05-09T05:22:41.362Z,10.09
2023-05-09T05:25:44.373Z,10.10
2023-05-09T05:28:48.186Z,10.16
2023-05-09T05:31:51.258Z,10.22
2023-05-09T05:34:53.932Z,10.30
2023-05-09T05:37:56.951Z,10.60
2023-05-09T05:41:00.806Z,10.57
2023-05-09T05:44:04.001Z,10.67
2023-05-09T05:47:07.255Z,10.83
2023-05-09T05:50:12.095Z,10.92
2023-05-09T05:53:15.429Z,10.97
2023-05-09T05:56:19.134Z,11.11
2023-05-09T05:59:21.955Z,11.26
2023-05-09T06:02:25.184Z,11.39
2023-05-09T06:05:28.328Z,11.33
2023-05-09T06:08:31.470Z,11.38
2023-05-09T06:11:34.420Z,11.60
2023-05-09T06:14:36.975Z,11.61
2023-05-09T06:17:40.415Z,11.84
2023-05-09T06:20:43.052Z,11.82
2023-05-09T06:26:52.048Z,12.10
2023-05-09T06:29:55.030Z,12.19
2023-05-09T06:32:58.378Z,12.28
2023-05-09T06:36:01.353Z,12.35
2023-05-09T06:39:04.195Z,12.42
2023-05-09T06:42:07.077Z,12.61
2023-05-09T06:45:13.032Z,12.72
2023-05-09T06:48:16.092Z,12.89
2023-05-09T06:51:18.721Z,12.87
2023-05-09T06:54:21.631Z,12.92
2023-05-09T06:57:24.333Z,13.12
2023-05-09T07:00:27.325Z,13.29
2023-05-09T07:03:30.389Z,13.47
2023-05-09T07:06:33.937Z,13.70
2023-05-09T07:09:37.647Z,13.51
2023-05-09T07:12:41.569Z,13.43
2023-05-09T07:15:44.504Z,13.62
2023-05-09T07:18:47.500Z,13.73
2023-05-09T07:21:50.108Z,13.84
2023-05-09T07:24:53.063Z,14.12
2023-05-09T07:27:55.695Z,14.11
2023-05-09T07:30:58.632Z,14.00
2023-05-09T07:34:01.170Z,14.15
2023-05-09T07:37:04.020Z,14.17
2023-05-09T07:40:07.310Z,14.34
2023-05-09T07:43:10.212Z,14.32
2023-05-09T07:46:12.989Z,14.67
2023-05-09T07:49:16.047Z,14.86
2023-05-09T07:52:18.700Z,14.68
2023-05-09T07:55:21.572Z,14.90
2023-05-09T07:58:24.226Z,15.19
2023-05-09T08:01:27.137Z,15.16
2023-05-09T08:04:30.118Z,15.04
2023-05-09T08:07:32.682Z,14.96
2023-05-09T08:10:35.721Z,14.82
2023-05-09T08:13:38.387Z,15.12
2023-05-09T08:16:43.455Z,15.28
2023-05-09T08:19:46.200Z,15.56
2023-05-09T08:22:49.032Z,15.71
2023-05-09T08:25:55.035Z,15.97
2023-05-09T08:28:58.077Z,16.04
2023-05-09T08:32:01.087Z,16.23
2023-05-09T08:35:04.267Z,15.91
2023-05-09T08:38:06.879Z,15.98
2023-05-09T08:41:09.832Z,16.61
2023-05-09T08:44:13.028Z,16.82
2023-05-09T08:47:16.106Z,16.41
2023-05-09T08:50:20.434Z,16.59
2023-05-09T08:53:23.536Z,16.37
2023-05-09T08:56:26.684Z,16.32
2023-05-09T08:59:31.013Z,16.56
2023-05-09T09:02:35.561Z,17.31
2023-05-09T09:05:42.782Z,17.53
2023-05-09T09:08:46.506Z,17.62
2023-05-09T09:11:49.771Z,17.72
2023-05-09T09:15:00.224Z,17.75
2023-05-09T09:18:11.593Z,17.90
2023-05-09T09:21:19.516Z,17.90
2023-05-09T09:24:23.168Z,17.92
2023-05-09T09:27:25.728Z,18.09
2023-05-09T09:30:29.388Z,17.77
2023-05-09T09:33:32.070Z,17.54
2023-05-09T09:36:36.846Z,17.53
2023-05-09T09:39:53.980Z,17.89
2023-05-09T09:42:56.823Z,18.17
2023-05-09T09:46:04.102Z,18.09
2023-05-09T09:49:19.200Z,18.30
2023-05-09T09:52:25.235Z,18.74
2023-05-09T09:55:29.375Z,18.85
2023-05-09T09:58:32.047Z,19.02
2023-05-09T10:01:35.019Z,19.33
2023-05-09T10:04:39.326Z,19.63
2023-05-09T10:07:41.931Z,19.31
2023-05-09T10:10:45.088Z,19.22
2023-05-09T10:13:47.939Z,18.27
2023-05-09T10:17:02.172Z,18.42
2023-05-09T10:20:06.171Z,19.33
2023-05-09T10:23:12.018Z,19.91
2023-05-09T10:26:19.823Z,19.59
2023-05-09T10:29:25.367Z,19.72
2023-05-09T10:32:29.954Z,20.02
2023-05-09T10:35:47.116Z,19.57
2023-05-09T10:38:54.907Z,18.98
2023-05-09T10:41:59.137Z,18.81
2023-05-09T10:45:01.991Z,19.52
2023-05-09T10:48:08.814Z,20.08
2023-05-09T10:51:12.791Z,20.35
2023-05-09T10:54:30.070Z,19.80
2023-05-09T10:57:34.564Z,19.70
2023-05-09T11:00:41.840Z,20.06
2023-05-09T11:03:58.957Z,20.59
2023-05-09T11:07:01.966Z,21.02
2023-05-09T11:10:16.838Z,21.09
2023-05-09T11:13:25.118Z,20.98
2023-05-09T11:16:27.874Z,20.59
2023-05-09T11:19:43.084Z,20.04
2023-05-09T11:22:47.207Z,20.37
2023-05-09T11:25:50.207Z,20.17
2023-05-09T11:28:54.246Z,20.58
2023-05-09T11:32:10.163Z,21.13
2023-05-09T11:35:18.023Z,20.82
2023-05-09T11:38:22.846Z,20.88
2023-05-09T11:41:27.045Z,20.68
2023-05-09T11:44:33.521Z,20.40
2023-05-09T11:47:37.833Z,20.24
2023-05-09T11:50:41.707Z,20.48
2023-05-09T11:53:46.910Z,19.96
2023-05-09T11:56:49.766Z,19.75
2023-05-09T11:59:52.956Z,20.11
2023-05-09T12:02:56.440Z,20.02
2023-05-09T12:05:59.402Z,19.97
2023-05-09T12:09:02.011Z,19.92
2023-05-09T12:12:12.249Z,19.72
2023-05-09T12:15:15.959Z,19.84
2023-05-09T12:18:19.041Z,19.60
2023-05-09T12:21:22.759Z,19.60
2023-05-09T12:24:29.283Z,19.97
2023-05-09T12:27:33.104Z,20.03
2023-05-09T12:30:36.183Z,19.74
2023-05-09T12:33:39.419Z,19.23
2023-05-09T12:36:52.029Z,19.20
2023-05-09T12:40:06.309Z,19.61
2023-05-09T12:43:09.165Z,19.69
2023-05-09T12:46:11.763Z,19.16
2023-05-09T12:49:22.112Z,19.65
2023-05-09T12:52:24.975Z,19.86
2023-05-09T12:55:28.009Z,20.12
2023-05-09T12:58:32.925Z,20.00
2023-05-09T13:01:36.317Z,20.02
2023-05-09T13:04:38.821Z,19.91
2023-05-09T13:07:43.410Z,19.79
2023-05-09T13:10:46.147Z,19.68
2023-05-09T13:13:49.011Z,19.73
2023-05-09T13:16:51.659Z,19.83
2023-05-09T13:19:54.511Z,19.73
2023-05-09T13:22:57.705Z,19.28
2023-05-09T13:26:00.601Z,19.33
2023-05-09T13:29:03.491Z,19.52
2023-05-09T13:32:07.205Z,19.66
2023-05-09T13:35:10.015Z,19.78
2023-05-09T13:38:12.828Z,20.54
2023-05-09T13:41:20.150Z,21.01
2023-05-09T13:44:26.667Z,21.43
2023-05-09T13:47:29.220Z,21.83
2023-05-09T13:50:32.626Z,21.43
2023-05-09T13:53:37.354Z,21.16
2023-05-09T13:56:42.920Z,20.80
2023-05-09T13:59:45.635Z,20.25
2023-05-09T14:02:48.663Z,20.21
2023-05-09T14:05:51.932Z,20.02
2023-05-09T14:08:56.168Z,19.70
2023-05-09T14:11:59.033Z,19.67
2023-05-09T14:15:02.301Z,19.41
2023-05-09T14:18:05.244Z,19.65
2023-05-09T14:21:08.039Z,20.02
2023-05-09T14:24:15.079Z,20.58
2023-05-09T14:27:18.491Z,20.62
2023-05-09T14:30:21.700Z,20.29
2023-05-09T14:33:24.399Z,20.20
2023-05-09T14:36:28.959Z,21.21
2023-05-09T14:39:31.577Z,22.24
2023-05-09T14:42:35.622Z,22.09
2023-05-09T14:45:38.411Z,21.43
2023-05-09T14:48:41.395Z,20.70
2023-05-09T14:51:44.464Z,20.31
2023-05-09T14:54:47.463Z,19.74
2023-05-09T14:57:50.092Z,19.49
2023-05-09T15:00:53.581Z,19.34
2023-05-09T15:03:56.332Z,21.42
2023-05-09T15:06:59.737Z,24.94
2023-05-09T15:10:03.479Z,28.62
2023-05-09T15:13:06.418Z,28.31
2023-05-09T15:16:09.100Z,26.08
2023-05-09T15:19:12.100Z,23.81
2023-05-09T15:22:14.891Z,22.22
2023-05-09T15:25:18.134Z,21.02
2023-05-09T15:28:20.697Z,23.18
2023-05-09T15:31:24.938Z,27.57
2023-05-09T15:34:27.700Z,30.69
2023-05-09T15:37:30.618Z,29.41
2023-05-09T15:40:33.386Z,27.85
2023-05-09T15:43:36.219Z,25.18
2023-05-09T15:46:38.836Z,24.52
2023-05-09T15:49:41.810Z,23.65
2023-05-09T15:52:44.436Z,22.43
2023-05-09T15:55:47.360Z,21.50
2023-05-09T15:58:50.010Z,20.72
2023-05-09T16:01:53.642Z,20.22
2023-05-09T16:04:56.676Z,19.81
2023-05-09T16:07:59.187Z,19.72
2023-05-09T16:11:02.188Z,19.75
2023-05-09T16:14:07.545Z,20.33
2023-05-09T16:17:10.517Z,20.89
2023-05-09T16:20:14.268Z,21.29
2023-05-09T16:23:17.527Z,21.24
2023-05-09T16:26:20.109Z,20.91
2023-05-09T16:29:23.118Z,20.66
2023-05-09T16:32:25.704Z,20.73
2023-05-09T16:35:28.958Z,20.87
2023-05-09T16:38:31.714Z,20.61
2023-05-09T16:41:34.850Z,20.31
2023-05-09T16:44:37.579Z,19.74
2023-05-09T16:47:40.755Z,19.24
2023-05-09T16:50:45.262Z,18.82
2023-05-09T16:53:48.205Z,18.61
2023-05-09T16:56:50.782Z,18.36
2023-05-09T16:59:53.906Z,18.21
2023-05-09T17:02:56.524Z,18.06
2023-05-09T17:05:59.464Z,17.79
2023-05-09T17:09:02.017Z,17.69
2023-05-09T17:12:05.227Z,17.50
2023-05-09T17:15:09.158Z,17.29
2023-05-09T17:18:15.315Z,17.27
2023-05-09T17:21:23.039Z,17.07
2023-05-09T17:24:25.965Z,17.21
2023-05-09T17:27:28.587Z,17.10
2023-05-09T17:30:31.625Z,17.16
2023-05-09T17:33:34.358Z,16.95
2023-05-09T17:36:37.180Z,16.90
2023-05-09T17:39:40.766Z,16.72
2023-05-09T17:42:43.698Z,16.64
2023-05-09T17:45:46.698Z,16.49
2023-05-09T17:48:49.884Z,16.34
2023-05-09T17:51:52.620Z,16.20
2023-05-09T17:54:56.292Z,16.09
2023-05-09T17:57:58.964Z,15.90
2023-05-09T18:01:04.173Z,15.82
2023-05-09T18:04:07.294Z,15.73
2023-05-09T18:07:09.825Z,15.51
2023-05-09T18:10:13.194Z,15.39
2023-05-09T18:13:16.568Z,15.37
2023-05-09T18:16:19.553Z,15.17
2023-05-09T18:19:22.312Z,15.02
2023-05-09T18:22:25.604Z,14.91
2023-05-09T18:25:28.217Z,14.79
2023-05-09T18:28:39.024Z,14.66
2023-05-09T18:31:41.839Z,14.55
2023-05-09T18:34:44.865Z,14.45
2023-05-09T18:37:47.512Z,14.40
2023-05-09T18:40:52.103Z,14.36
2023-05-09T18:43:57.159Z,14.29
2023-05-09T18:47:00.113Z,14.18
2023-05-09T18:50:04.816Z,14.09
2023-05-09T18:53:07.723Z,14.08
2023-05-09T18:56:10.495Z,14.11
2023-05-09T18:59:16.216Z,14.01
2023-05-09T19:02:19.533Z,13.99
2023-05-09T19:05:22.773Z,13.98
2023-05-09T19:08:26.949Z,13.98
2023-05-09T19:11:30.330Z,13.94
2023-05-09T19:14:33.367Z,13.92
2023-05-09T19:17:36.759Z,13.88
2023-05-09T19:20:49.170Z,13.83
2023-05-09T19:23:52.595Z,13.74
2023-05-09T19:26:55.712Z,13.58
2023-05-09T19:29:59.467Z,13.56
2023-05-09T19:33:02.471Z,13.58
2023-05-09T19:36:06.277Z,13.46
2023-05-09T19:39:09.344Z,13.40
2023-05-09T19:42:12.584Z,13.31
2023-05-09T19:45:15.731Z,13.24
2023-05-09T19:48:19.115Z,13.21
2023-05-09T19:51:22.115Z,13.20
2023-05-09T19:54:27.086Z,13.13
2023-05-09T19:57:29.984Z,13.04
2023-05-09T20:00:33.458Z,13.06
2023-05-09T20:03:37.184Z,12.97
2023-05-09T20:06:40.181Z,12.88
2023-05-09T20:09:43.514Z,12.79
2023-05-09T20:12:46.187Z,12.71
2023-05-09T20:15:50.211Z,12.66
2023-05-09T20:18:52.993Z,12.64
2023-05-09T20:21:56.009Z,12.55
2023-05-09T20:24:58.700Z,12.47
2023-05-09T20:28:01.643Z,12.40
2023-05-09T20:31:04.271Z,12.40
2023-05-09T20:34:10.657Z,12.35
2023-05-09T20:37:13.406Z,12.26
2023-05-09T20:40:16.518Z,12.21
2023-05-09T20:43:19.892Z,12.14
2023-05-09T20:46:22.808Z,12.04
2023-05-09T20:49:25.821Z,11.95
2023-05-09T20:52:28.802Z,11.88
2023-05-09T20:55:31.408Z,11.81
2023-05-09T20:58:34.593Z,11.78
2023-05-09T21:01:37.402Z,11.82
2023-05-09T21:04:40.365Z,11.86
2023-05-09T21:07:43.021Z,11.82
2023-05-09T21:10:46.035Z,11.80
2023-05-09T21:13:48.711Z,11.72
2023-05-09T21:16:51.950Z,11.70
2023-05-09T21:19:54.616Z,11.58
2023-05-09T21:22:57.552Z,11.52
2023-05-09T21:26:00.839Z,11.42
2023-05-09T21:29:03.775Z,11.43
2023-05-09T21:32:06.435Z,11.43
2023-05-09T21:35:12.605Z,11.49
2023-05-09T21:38:15.186Z,11.62
2023-05-09T21:41:18.168Z,11.66
2023-05-09T21:44:20.788Z,11.80
2023-05-09T21:47:23.761Z,11.91
2023-05-09T21:50:26.615Z,12.06
2023-05-09T21:53:29.584Z,12.18
2023-05-09T21:56:32.157Z,12.25
2023-05-09T21:59:34.893Z,12.31
2023-05-09T22:02:38.783Z,12.34
2023-05-09T22:05:41.774Z,12.30
2023-05-09T22:08:44.341Z,12.17
2023-05-09T22:11:47.269Z,12.15
2023-05-09T22:14:56.213Z,12.15
2023-05-09T22:18:00.008Z,12.12
2023-05-09T22:21:02.661Z,12.17
2023-05-09T22:24:06.992Z,12.10
2023-05-09T22:27:10.271Z,12.05
2023-05-09T22:30:13.591Z,12.00
2023-05-09T22:33:16.300Z,12.08
2023-05-09T22:36:19.777Z,12.09
2023-05-09T22:39:22.337Z,12.16
2023-05-09T22:42:25.223Z,12.15
2023-05-09T22:45:27.842Z,12.13
2023-05-09T22:48:30.654Z,12.08
2023-05-09T22:51:33.474Z,12.08
2023-05-09T22:54:36.318Z,12.19
2023-05-09T22:57:40.228Z,12.18
2023-05-09T23:00:43.112Z,12.17
2023-05-09T23:03:45.657Z,12.36
2023-05-09T23:07:07.835Z,12.29
2023-05-09T23:10:29.457Z,12.24
2023-05-09T23:13:32.536Z,12.21
2023-05-09T23:16:35.437Z,12.27
2023-05-09T23:19:38.312Z,12.29
2023-05-09T23:22:40.994Z,12.28
2023-05-09T23:25:44.429Z,12.25
2023-05-09T23:28:47.052Z,12.26
2023-05-09T23:31:50.168Z,12.24
2023-05-09T23:34:53.445Z,12.28
2023-05-09T23:37:56.519Z,12.30
2023-05-09T23:41:00.099Z,12.36
2023-05-09T23:44:03.500Z,12.28
2023-05-09T23:47:06.299Z,12.26
2023-05-09T23:50:09.331Z,12.28
2023-05-09T23:53:12.062Z,12.28
2023-05-09T23:56:15.101Z,12.24
2023-05-09T23:59:17.683Z,12.32
